sensor_id;sensor_type;location;lat;lon;timestamp;P1;durP1;ratioP1;P2;durP2;ratioP2
61150;SDS011;47029;50.994;2.876;2022-10-16T00:00:17;16.45;;;7.15;;
61150;SDS011;47029;50.994;2.876;2022-10-16T00:02:43;21.98;;;10.75;;
61150;SDS011;47029;50.994;2.876;2022-10-16T00:05:09;20.50;;;10.88;;
61150;SDS011;47029;50.994;2.876;2022-10-16T00:07:35;13.43;;;6.80;;
61150;SDS011;47029;50.994;2.876;2022-10-16T00:10:01;9.75;;;5.03;;
61150;SDS011;47029;50.994;2.876;2022-10-16T00:12:26;12.18;;;7.07;;
61150;SDS011;47029;50.994;2.876;2022-10-16T00:14:52;9.60;;;4.37;;
61150;SDS011;47029;50.994;2.876;2022-10-16T00:17:18;9.48;;;4.80;;
61150;SDS011;47029;50.994;2.876;2022-10-16T00:19:44;9.25;;;3.62;;
61150;SDS011;47029;50.994;2.876;2022-10-16T00:22:10;9.35;;;3.30;;
61150;SDS011;47029;50.994;2.876;2022-10-16T00:24:36;8.02;;;3.30;;
61150;SDS011;47029;50.994;2.876;2022-10-16T00:27:02;7.43;;;3.00;;
61150;SDS011;47029;50.994;2.876;2022-10-16T00:29:28;8.85;;;3.00;;
61150;SDS011;47029;50.994;2.876;2022-10-16T00:31:54;11.38;;;5.90;;
61150;SDS011;47029;50.994;2.876;2022-10-16T00:34:20;8.75;;;3.60;;
61150;SDS011;47029;50.994;2.876;2022-10-16T00:36:46;8.93;;;3.12;;
61150;SDS011;47029;50.994;2.876;2022-10-16T00:39:12;9.73;;;4.20;;
61150;SDS011;47029;50.994;2.876;2022-10-16T00:41:38;9.70;;;3.97;;
61150;SDS011;47029;50.994;2.876;2022-10-16T00:44:41;8.77;;;3.75;;
61150;SDS011;47029;50.994;2.876;2022-10-16T00:49:41;9.77;;;4.12;;
61150;SDS011;47029;50.994;2.876;2022-10-16T00:52:07;8.18;;;3.20;;
61150;SDS011;47029;50.994;2.876;2022-10-16T00:54:33;8.68;;;3.20;;
61150;SDS011;47029;50.994;2.876;2022-10-16T00:57:01;9.55;;;3.55;;
61150;SDS011;47029;50.994;2.876;2022-10-16T00:59:31;8.48;;;3.42;;
61150;SDS011;47029;50.994;2.876;2022-10-16T01:02:02;8.80;;;3.10;;
61150;SDS011;47029;50.994;2.876;2022-10-16T01:04:33;6.95;;;2.95;;
61150;SDS011;47029;50.994;2.876;2022-10-16T01:10:25;8.77;;;3.42;;
61150;SDS011;47029;50.994;2.876;2022-10-16T01:13:26;10.68;;;3.78;;
61150;SDS011;47029;50.994;2.876;2022-10-16T01:16:03;10.80;;;3.75;;
61150;SDS011;47029;50.994;2.876;2022-10-16T01:18:45;8.52;;;3.58;;
61150;SDS011;47029;50.994;2.876;2022-10-16T01:21:18;8.70;;;3.08;;
61150;SDS011;47029;50.994;2.876;2022-10-16T01:27:25;9.43;;;3.20;;
61150;SDS011;47029;50.994;2.876;2022-10-16T01:32:05;8.02;;;3.30;;
61150;SDS011;47029;50.994;2.876;2022-10-16T01:34:56;7.90;;;3.12;;
61150;SDS011;47029;50.994;2.876;2022-10-16T01:37:32;10.13;;;3.03;;
61150;SDS011;47029;50.994;2.876;2022-10-16T01:40:17;8.25;;;3.12;;
61150;SDS011;47029;50.994;2.876;2022-10-16T01:42:46;8.23;;;3.00;;
61150;SDS011;47029;50.994;2.876;2022-10-16T01:45:17;10.55;;;3.55;;
61150;SDS011;47029;50.994;2.876;2022-10-16T01:47:45;10.50;;;3.12;;
61150;SDS011;47029;50.994;2.876;2022-10-16T01:50:13;8.15;;;3.05;;
61150;SDS011;47029;50.994;2.876;2022-10-16T01:52:42;8.25;;;2.87;;
61150;SDS011;47029;50.994;2.876;2022-10-16T01:55:12;8.65;;;3.20;;
61150;SDS011;47029;50.994;2.876;2022-10-16T01:57:44;12.43;;;3.22;;
61150;SDS011;47029;50.994;2.876;2022-10-16T02:00:14;10.38;;;3.17;;
61150;SDS011;47029;50.994;2.876;2022-10-16T02:02:46;8.95;;;3.47;;
61150;SDS011;47029;50.994;2.876;2022-10-16T02:08:17;7.95;;;3.10;;
61150;SDS011;47029;50.994;2.876;2022-10-16T02:10:43;8.52;;;3.20;;
61150;SDS011;47029;50.994;2.876;2022-10-16T02:13:10;9.48;;;3.33;;
61150;SDS011;47029;50.994;2.876;2022-10-16T02:15:41;9.10;;;3.00;;
61150;SDS011;47029;50.994;2.876;2022-10-16T02:18:07;10.30;;;3.28;;
61150;SDS011;47029;50.994;2.876;2022-10-16T02:20:44;7.72;;;3.10;;
61150;SDS011;47029;50.994;2.876;2022-10-16T02:26:18;9.85;;;3.35;;
61150;SDS011;47029;50.994;2.876;2022-10-16T02:28:58;9.30;;;3.20;;
61150;SDS011;47029;50.994;2.876;2022-10-16T02:31:30;8.52;;;3.20;;
61150;SDS011;47029;50.994;2.876;2022-10-16T02:34:00;7.82;;;3.00;;
61150;SDS011;47029;50.994;2.876;2022-10-16T02:36:30;8.68;;;3.00;;
61150;SDS011;47029;50.994;2.876;2022-10-16T02:38:57;9.68;;;3.10;;
61150;SDS011;47029;50.994;2.876;2022-10-16T02:41:26;7.87;;;3.08;;
61150;SDS011;47029;50.994;2.876;2022-10-16T02:43:52;8.55;;;3.30;;
61150;SDS011;47029;50.994;2.876;2022-10-16T02:46:20;8.77;;;3.20;;
61150;SDS011;47029;50.994;2.876;2022-10-16T02:48:46;10.35;;;3.53;;
61150;SDS011;47029;50.994;2.876;2022-10-16T02:51:12;10.60;;;3.45;;
61150;SDS011;47029;50.994;2.876;2022-10-16T02:53:38;9.32;;;3.22;;
61150;SDS011;47029;50.994;2.876;2022-10-16T02:56:04;9.93;;;3.53;;
61150;SDS011;47029;50.994;2.876;2022-10-16T02:58:31;10.25;;;3.20;;
61150;SDS011;47029;50.994;2.876;2022-10-16T03:00:57;8.57;;;3.03;;
61150;SDS011;47029;50.994;2.876;2022-10-16T03:03:24;11.30;;;3.20;;
61150;SDS011;47029;50.994;2.876;2022-10-16T03:05:50;10.00;;;3.30;;
61150;SDS011;47029;50.994;2.876;2022-10-16T03:08:16;8.65;;;3.20;;
61150;SDS011;47029;50.994;2.876;2022-10-16T03:10:42;8.15;;;3.20;;
61150;SDS011;47029;50.994;2.876;2022-10-16T03:13:08;8.95;;;3.20;;
61150;SDS011;47029;50.994;2.876;2022-10-16T03:15:34;8.60;;;3.10;;
61150;SDS011;47029;50.994;2.876;2022-10-16T03:18:01;11.77;;;3.28;;
61150;SDS011;47029;50.994;2.876;2022-10-16T03:20:27;9.05;;;3.10;;
61150;SDS011;47029;50.994;2.876;2022-10-16T03:22:52;10.63;;;3.20;;
61150;SDS011;47029;50.994;2.876;2022-10-16T03:25:19;9.15;;;3.20;;
61150;SDS011;47029;50.994;2.876;2022-10-16T03:27:45;12.10;;;3.50;;
61150;SDS011;47029;50.994;2.876;2022-10-16T03:30:11;7.72;;;3.10;;
61150;SDS011;47029;50.994;2.876;2022-10-16T03:32:37;9.13;;;3.33;;
61150;SDS011;47029;50.994;2.876;2022-10-16T03:35:03;9.65;;;3.40;;
61150;SDS011;47029;50.994;2.876;2022-10-16T03:37:30;8.38;;;3.12;;
61150;SDS011;47029;50.994;2.876;2022-10-16T03:39:56;7.28;;;3.22;;
61150;SDS011;47029;50.994;2.876;2022-10-16T03:42:22;9.40;;;3.45;;
61150;SDS011;47029;50.994;2.876;2022-10-16T03:44:49;9.20;;;3.30;;
61150;SDS011;47029;50.994;2.876;2022-10-16T03:47:15;8.52;;;3.10;;
61150;SDS011;47029;50.994;2.876;2022-10-16T03:49:45;8.43;;;3.25;;
61150;SDS011;47029;50.994;2.876;2022-10-16T03:52:11;11.70;;;3.40;;
61150;SDS011;47029;50.994;2.876;2022-10-16T03:54:37;7.93;;;3.00;;
61150;SDS011;47029;50.994;2.876;2022-10-16T03:57:03;7.97;;;3.00;;
61150;SDS011;47029;50.994;2.876;2022-10-16T03:59:29;7.78;;;2.97;;
61150;SDS011;47029;50.994;2.876;2022-10-16T04:01:55;10.50;;;3.33;;
61150;SDS011;47029;50.994;2.876;2022-10-16T04:04:21;8.70;;;3.10;;
61150;SDS011;47029;50.994;2.876;2022-10-16T04:06:47;9.30;;;3.12;;
61150;SDS011;47029;50.994;2.876;2022-10-16T04:09:13;9.07;;;3.40;;
61150;SDS011;47029;50.994;2.876;2022-10-16T04:11:39;10.07;;;3.30;;
61150;SDS011;47029;50.994;2.876;2022-10-16T04:14:05;8.55;;;3.20;;
61150;SDS011;47029;50.994;2.876;2022-10-16T04:16:31;10.05;;;3.12;;
61150;SDS011;47029;50.994;2.876;2022-10-16T04:18:57;10.60;;;3.33;;
61150;SDS011;47029;50.994;2.876;2022-10-16T04:21:23;12.07;;;3.58;;
61150;SDS011;47029;50.994;2.876;2022-10-16T04:23:49;9.77;;;3.15;;
61150;SDS011;47029;50.994;2.876;2022-10-16T04:26:15;12.50;;;3.20;;
61150;SDS011;47029;50.994;2.876;2022-10-16T04:28:41;11.27;;;3.40;;
61150;SDS011;47029;50.994;2.876;2022-10-16T04:31:10;10.00;;;3.10;;
61150;SDS011;47029;50.994;2.876;2022-10-16T04:33:36;9.15;;;3.30;;
61150;SDS011;47029;50.994;2.876;2022-10-16T04:36:02;10.93;;;3.05;;
61150;SDS011;47029;50.994;2.876;2022-10-16T04:38:28;8.60;;;3.12;;
61150;SDS011;47029;50.994;2.876;2022-10-16T04:40:54;7.75;;;3.15;;
61150;SDS011;47029;50.994;2.876;2022-10-16T04:43:20;11.30;;;3.00;;
61150;SDS011;47029;50.994;2.876;2022-10-16T04:45:47;7.53;;;2.90;;
61150;SDS011;47029;50.994;2.876;2022-10-16T04:48:13;10.38;;;3.20;;
61150;SDS011;47029;50.994;2.876;2022-10-16T04:50:39;9.13;;;3.17;;
61150;SDS011;47029;50.994;2.876;2022-10-16T04:53:06;11.52;;;3.75;;
61150;SDS011;47029;50.994;2.876;2022-10-16T04:55:32;11.00;;;3.47;;
61150;SDS011;47029;50.994;2.876;2022-10-16T04:57:58;11.68;;;3.78;;
61150;SDS011;47029;50.994;2.876;2022-10-16T05:00:25;8.75;;;3.03;;
61150;SDS011;47029;50.994;2.876;2022-10-16T05:02:51;9.02;;;3.05;;
61150;SDS011;47029;50.994;2.876;2022-10-16T05:05:17;8.38;;;2.90;;
61150;SDS011;47029;50.994;2.876;2022-10-16T05:07:44;10.23;;;2.97;;
61150;SDS011;47029;50.994;2.876;2022-10-16T05:10:11;9.57;;;3.10;;
61150;SDS011;47029;50.994;2.876;2022-10-16T05:12:37;10.63;;;2.90;;
61150;SDS011;47029;50.994;2.876;2022-10-16T05:15:04;9.43;;;2.85;;
61150;SDS011;47029;50.994;2.876;2022-10-16T05:17:30;9.95;;;3.15;;
61150;SDS011;47029;50.994;2.876;2022-10-16T05:19:56;10.00;;;3.03;;
61150;SDS011;47029;50.994;2.876;2022-10-16T05:22:21;8.23;;;3.00;;
61150;SDS011;47029;50.994;2.876;2022-10-16T05:24:47;8.43;;;2.90;;
61150;SDS011;47029;50.994;2.876;2022-10-16T05:27:21;10.98;;;3.00;;
61150;SDS011;47029;50.994;2.876;2022-10-16T05:29:49;10.77;;;3.00;;
61150;SDS011;47029;50.994;2.876;2022-10-16T05:32:15;9.50;;;2.97;;
61150;SDS011;47029;50.994;2.876;2022-10-16T05:34:43;9.90;;;3.10;;
61150;SDS011;47029;50.994;2.876;2022-10-16T05:37:10;8.13;;;2.90;;
61150;SDS011;47029;50.994;2.876;2022-10-16T05:39:37;11.75;;;2.95;;
61150;SDS011;47029;50.994;2.876;2022-10-16T05:42:03;10.13;;;2.95;;
61150;SDS011;47029;50.994;2.876;2022-10-16T05:44:30;10.90;;;2.80;;
61150;SDS011;47029;50.994;2.876;2022-10-16T05:46:56;9.32;;;3.22;;
61150;SDS011;47029;50.994;2.876;2022-10-16T05:49:22;11.68;;;3.25;;
61150;SDS011;47029;50.994;2.876;2022-10-16T05:51:48;10.13;;;2.87;;
61150;SDS011;47029;50.994;2.876;2022-10-16T05:54:14;10.88;;;3.30;;
61150;SDS011;47029;50.994;2.876;2022-10-16T05:56:40;8.75;;;2.90;;
61150;SDS011;47029;50.994;2.876;2022-10-16T05:59:06;10.13;;;3.00;;
61150;SDS011;47029;50.994;2.876;2022-10-16T06:01:31;9.23;;;2.90;;
61150;SDS011;47029;50.994;2.876;2022-10-16T06:03:58;9.30;;;2.97;;
61150;SDS011;47029;50.994;2.876;2022-10-16T06:06:25;12.80;;;3.00;;
61150;SDS011;47029;50.994;2.876;2022-10-16T06:08:53;8.90;;;3.22;;
61150;SDS011;47029;50.994;2.876;2022-10-16T06:11:24;11.25;;;3.00;;
61150;SDS011;47029;50.994;2.876;2022-10-16T06:13:52;9.82;;;2.83;;
61150;SDS011;47029;50.994;2.876;2022-10-16T06:16:21;10.02;;;3.25;;
61150;SDS011;47029;50.994;2.876;2022-10-16T06:18:50;8.38;;;2.90;;
61150;SDS011;47029;50.994;2.876;2022-10-16T06:21:21;8.88;;;3.10;;
61150;SDS011;47029;50.994;2.876;2022-10-16T06:23:49;10.15;;;3.10;;
61150;SDS011;47029;50.994;2.876;2022-10-16T06:26:17;8.77;;;3.00;;
61150;SDS011;47029;50.994;2.876;2022-10-16T06:28:45;11.35;;;3.20;;
61150;SDS011;47029;50.994;2.876;2022-10-16T06:31:12;9.73;;;3.15;;
61150;SDS011;47029;50.994;2.876;2022-10-16T06:33:39;9.65;;;3.10;;
61150;SDS011;47029;50.994;2.876;2022-10-16T06:36:09;13.13;;;3.42;;
61150;SDS011;47029;50.994;2.876;2022-10-16T06:38:40;8.65;;;2.87;;
61150;SDS011;47029;50.994;2.876;2022-10-16T06:41:07;10.77;;;3.05;;
61150;SDS011;47029;50.994;2.876;2022-10-16T06:43:34;12.05;;;3.30;;
61150;SDS011;47029;50.994;2.876;2022-10-16T06:46:03;13.52;;;3.90;;
61150;SDS011;47029;50.994;2.876;2022-10-16T06:48:31;13.93;;;3.75;;
61150;SDS011;47029;50.994;2.876;2022-10-16T06:50:58;9.55;;;3.10;;
61150;SDS011;47029;50.994;2.876;2022-10-16T06:53:28;9.25;;;3.00;;
61150;SDS011;47029;50.994;2.876;2022-10-16T06:55:55;12.32;;;3.35;;
61150;SDS011;47029;50.994;2.876;2022-10-16T06:58:21;9.52;;;2.90;;
61150;SDS011;47029;50.994;2.876;2022-10-16T07:00:47;9.57;;;2.87;;
61150;SDS011;47029;50.994;2.876;2022-10-16T07:03:13;12.82;;;3.12;;
61150;SDS011;47029;50.994;2.876;2022-10-16T07:05:40;10.07;;;2.90;;
61150;SDS011;47029;50.994;2.876;2022-10-16T07:08:07;10.13;;;3.15;;
61150;SDS011;47029;50.994;2.876;2022-10-16T07:10:33;10.77;;;3.45;;
61150;SDS011;47029;50.994;2.876;2022-10-16T07:13:02;8.50;;;3.10;;
61150;SDS011;47029;50.994;2.876;2022-10-16T07:15:28;8.68;;;3.20;;
61150;SDS011;47029;50.994;2.876;2022-10-16T07:17:55;11.73;;;3.10;;
61150;SDS011;47029;50.994;2.876;2022-10-16T07:20:20;14.00;;;3.30;;
61150;SDS011;47029;50.994;2.876;2022-10-16T07:22:46;9.00;;;3.00;;
61150;SDS011;47029;50.994;2.876;2022-10-16T07:25:12;10.18;;;3.30;;
61150;SDS011;47029;50.994;2.876;2022-10-16T07:27:39;9.48;;;3.30;;
61150;SDS011;47029;50.994;2.876;2022-10-16T07:30:05;14.98;;;3.80;;
61150;SDS011;47029;50.994;2.876;2022-10-16T07:32:31;10.82;;;3.20;;
61150;SDS011;47029;50.994;2.876;2022-10-16T07:34:57;11.40;;;3.33;;
61150;SDS011;47029;50.994;2.876;2022-10-16T07:37:23;12.43;;;3.17;;
61150;SDS011;47029;50.994;2.876;2022-10-16T07:39:49;10.73;;;3.60;;
61150;SDS011;47029;50.994;2.876;2022-10-16T07:42:15;11.15;;;4.07;;
61150;SDS011;47029;50.994;2.876;2022-10-16T07:44:41;13.10;;;4.80;;
61150;SDS011;47029;50.994;2.876;2022-10-16T07:47:07;12.82;;;4.10;;
61150;SDS011;47029;50.994;2.876;2022-10-16T07:49:33;11.80;;;3.55;;
61150;SDS011;47029;50.994;2.876;2022-10-16T07:51:59;9.40;;;3.40;;
61150;SDS011;47029;50.994;2.876;2022-10-16T07:54:25;9.38;;;3.30;;
61150;SDS011;47029;50.994;2.876;2022-10-16T07:56:51;8.88;;;3.00;;
61150;SDS011;47029;50.994;2.876;2022-10-16T07:59:17;10.32;;;3.42;;
61150;SDS011;47029;50.994;2.876;2022-10-16T08:01:43;10.38;;;3.08;;
61150;SDS011;47029;50.994;2.876;2022-10-16T08:04:09;7.85;;;3.03;;
61150;SDS011;47029;50.994;2.876;2022-10-16T08:06:38;11.55;;;3.50;;
61150;SDS011;47029;50.994;2.876;2022-10-16T08:09:05;9.80;;;3.10;;
61150;SDS011;47029;50.994;2.876;2022-10-16T08:11:33;9.07;;;3.30;;
61150;SDS011;47029;50.994;2.876;2022-10-16T08:13:59;12.63;;;3.58;;
61150;SDS011;47029;50.994;2.876;2022-10-16T08:16:25;12.77;;;3.30;;
61150;SDS011;47029;50.994;2.876;2022-10-16T08:18:51;15.68;;;3.20;;
61150;SDS011;47029;50.994;2.876;2022-10-16T08:21:18;11.23;;;3.20;;
61150;SDS011;47029;50.994;2.876;2022-10-16T08:23:45;9.10;;;3.10;;
61150;SDS011;47029;50.994;2.876;2022-10-16T08:26:14;13.00;;;3.83;;
61150;SDS011;47029;50.994;2.876;2022-10-16T08:28:40;10.27;;;3.20;;
61150;SDS011;47029;50.994;2.876;2022-10-16T08:31:14;11.35;;;3.22;;
61150;SDS011;47029;50.994;2.876;2022-10-16T08:33:41;9.18;;;2.95;;
61150;SDS011;47029;50.994;2.876;2022-10-16T08:36:11;12.75;;;3.50;;
61150;SDS011;47029;50.994;2.876;2022-10-16T08:38:38;11.15;;;3.58;;
61150;SDS011;47029;50.994;2.876;2022-10-16T08:41:17;10.27;;;3.28;;
61150;SDS011;47029;50.994;2.876;2022-10-16T08:49:01;8.73;;;2.90;;
61150;SDS011;47029;50.994;2.876;2022-10-16T08:51:30;11.43;;;3.28;;
61150;SDS011;47029;50.994;2.876;2022-10-16T08:57:01;11.02;;;3.55;;
61150;SDS011;47029;50.994;2.876;2022-10-16T08:59:34;9.45;;;3.00;;
61150;SDS011;47029;50.994;2.876;2022-10-16T09:02:01;12.73;;;3.50;;
61150;SDS011;47029;50.994;2.876;2022-10-16T09:07:08;12.25;;;3.33;;
61150;SDS011;47029;50.994;2.876;2022-10-16T09:21:30;10.15;;;3.30;;
61150;SDS011;47029;50.994;2.876;2022-10-16T09:24:06;12.75;;;3.67;;
61150;SDS011;47029;50.994;2.876;2022-10-16T09:26:39;14.00;;;5.40;;
61150;SDS011;47029;50.994;2.876;2022-10-16T09:29:05;12.60;;;3.70;;
61150;SDS011;47029;50.994;2.876;2022-10-16T09:31:31;11.63;;;3.20;;
61150;SDS011;47029;50.994;2.876;2022-10-16T09:34:02;11.80;;;3.83;;
61150;SDS011;47029;50.994;2.876;2022-10-16T09:36:39;11.00;;;4.37;;
61150;SDS011;47029;50.994;2.876;2022-10-16T09:39:09;12.57;;;3.80;;
61150;SDS011;47029;50.994;2.876;2022-10-16T09:41:40;10.27;;;3.60;;
61150;SDS011;47029;50.994;2.876;2022-10-16T09:44:19;11.43;;;3.60;;
61150;SDS011;47029;50.994;2.876;2022-10-16T09:46:49;12.13;;;3.20;;
61150;SDS011;47029;50.994;2.876;2022-10-16T09:49:26;10.60;;;3.28;;
61150;SDS011;47029;50.994;2.876;2022-10-16T09:52:02;10.38;;;3.42;;
61150;SDS011;47029;50.994;2.876;2022-10-16T09:54:48;14.82;;;3.35;;
61150;SDS011;47029;50.994;2.876;2022-10-16T09:57:15;11.60;;;3.20;;
61150;SDS011;47029;50.994;2.876;2022-10-16T09:59:51;12.65;;;3.35;;
61150;SDS011;47029;50.994;2.876;2022-10-16T10:02:19;11.27;;;3.60;;
61150;SDS011;47029;50.994;2.876;2022-10-16T10:04:56;10.65;;;3.00;;
61150;SDS011;47029;50.994;2.876;2022-10-16T10:07:24;14.68;;;3.47;;
61150;SDS011;47029;50.994;2.876;2022-10-16T10:09:51;11.77;;;3.00;;
61150;SDS011;47029;50.994;2.876;2022-10-16T10:12:24;13.35;;;3.70;;
61150;SDS011;47029;50.994;2.876;2022-10-16T10:14:54;11.50;;;3.40;;
61150;SDS011;47029;50.994;2.876;2022-10-16T10:17:22;10.85;;;3.30;;
61150;SDS011;47029;50.994;2.876;2022-10-16T10:19:55;11.00;;;3.17;;
61150;SDS011;47029;50.994;2.876;2022-10-16T10:24:57;11.75;;;3.08;;
61150;SDS011;47029;50.994;2.876;2022-10-16T10:27:52;13.85;;;3.42;;
61150;SDS011;47029;50.994;2.876;2022-10-16T10:33:12;9.27;;;3.15;;
61150;SDS011;47029;50.994;2.876;2022-10-16T10:38:53;11.12;;;3.00;;
61150;SDS011;47029;50.994;2.876;2022-10-16T10:42:05;13.05;;;3.08;;
61150;SDS011;47029;50.994;2.876;2022-10-16T10:44:42;11.80;;;3.22;;
61150;SDS011;47029;50.994;2.876;2022-10-16T10:47:37;13.57;;;3.20;;
61150;SDS011;47029;50.994;2.876;2022-10-16T10:58:43;9.55;;;3.10;;
61150;SDS011;47029;50.994;2.876;2022-10-16T11:01:10;13.75;;;3.62;;
61150;SDS011;47029;50.994;2.876;2022-10-16T11:06:30;16.20;;;3.67;;
61150;SDS011;47029;50.994;2.876;2022-10-16T11:11:41;16.25;;;4.05;;
61150;SDS011;47029;50.994;2.876;2022-10-16T11:14:21;10.63;;;3.22;;
61150;SDS011;47029;50.994;2.876;2022-10-16T11:16:58;14.10;;;4.12;;
61150;SDS011;47029;50.994;2.876;2022-10-16T11:19:34;12.32;;;3.22;;
61150;SDS011;47029;50.994;2.876;2022-10-16T11:24:54;14.75;;;4.57;;
61150;SDS011;47029;50.994;2.876;2022-10-16T11:27:55;14.25;;;4.05;;
61150;SDS011;47029;50.994;2.876;2022-10-16T11:30:27;11.40;;;3.55;;
61150;SDS011;47029;50.994;2.876;2022-10-16T11:35:39;12.68;;;3.75;;
61150;SDS011;47029;50.994;2.876;2022-10-16T11:40:54;13.80;;;3.42;;
61150;SDS011;47029;50.994;2.876;2022-10-16T11:43:32;13.13;;;3.33;;
61150;SDS011;47029;50.994;2.876;2022-10-16T11:46:07;10.82;;;3.33;;
61150;SDS011;47029;50.994;2.876;2022-10-16T11:51:45;12.40;;;3.65;;
61150;SDS011;47029;50.994;2.876;2022-10-16T11:57:16;12.98;;;3.45;;
61150;SDS011;47029;50.994;2.876;2022-10-16T11:59:52;13.43;;;3.37;;
61150;SDS011;47029;50.994;2.876;2022-10-16T12:05:45;13.40;;;3.20;;
61150;SDS011;47029;50.994;2.876;2022-10-16T12:08:21;14.07;;;3.08;;
61150;SDS011;47029;50.994;2.876;2022-10-16T12:10:47;12.40;;;3.35;;
61150;SDS011;47029;50.994;2.876;2022-10-16T12:18:39;11.18;;;2.90;;
61150;SDS011;47029;50.994;2.876;2022-10-16T12:21:06;12.50;;;3.00;;
61150;SDS011;47029;50.994;2.876;2022-10-16T12:23:46;10.60;;;3.05;;
61150;SDS011;47029;50.994;2.876;2022-10-16T12:26:23;14.63;;;2.90;;
61150;SDS011;47029;50.994;2.876;2022-10-16T12:28:54;13.90;;;3.08;;
61150;SDS011;47029;50.994;2.876;2022-10-16T12:31:39;11.30;;;2.70;;
61150;SDS011;47029;50.994;2.876;2022-10-16T12:34:43;11.02;;;3.00;;
61150;SDS011;47029;50.994;2.876;2022-10-16T12:37:36;11.20;;;2.97;;
61150;SDS011;47029;50.994;2.876;2022-10-16T12:42:36;10.20;;;2.90;;
61150;SDS011;47029;50.994;2.876;2022-10-16T12:45:12;10.77;;;3.08;;
61150;SDS011;47029;50.994;2.876;2022-10-16T12:47:50;11.23;;;3.50;;
61150;SDS011;47029;50.994;2.876;2022-10-16T12:50:33;8.60;;;3.00;;
61150;SDS011;47029;50.994;2.876;2022-10-16T12:53:02;9.27;;;2.70;;
61150;SDS011;47029;50.994;2.876;2022-10-16T13:06:30;12.13;;;3.10;;
61150;SDS011;47029;50.994;2.876;2022-10-16T13:25:17;12.82;;;3.05;;
61150;SDS011;47029;50.994;2.876;2022-10-16T13:28:07;12.13;;;3.05;;
61150;SDS011;47029;50.994;2.876;2022-10-16T13:30:39;8.48;;;2.95;;
61150;SDS011;47029;50.994;2.876;2022-10-16T13:33:12;8.77;;;2.62;;
61150;SDS011;47029;50.994;2.876;2022-10-16T13:35:51;8.43;;;2.62;;
61150;SDS011;47029;50.994;2.876;2022-10-16T13:38:20;9.25;;;3.17;;
61150;SDS011;47029;50.994;2.876;2022-10-16T13:40:55;7.65;;;2.60;;
61150;SDS011;47029;50.994;2.876;2022-10-16T13:46:01;8.10;;;2.50;;
61150;SDS011;47029;50.994;2.876;2022-10-16T13:48:30;10.23;;;2.72;;
61150;SDS011;47029;50.994;2.876;2022-10-16T13:51:00;11.43;;;2.80;;
61150;SDS011;47029;50.994;2.876;2022-10-16T13:53:31;8.63;;;2.60;;
61150;SDS011;47029;50.994;2.876;2022-10-16T13:55:58;10.25;;;2.62;;
61150;SDS011;47029;50.994;2.876;2022-10-16T13:58:25;8.02;;;2.60;;
61150;SDS011;47029;50.994;2.876;2022-10-16T14:03:21;9.18;;;2.80;;
61150;SDS011;47029;50.994;2.876;2022-10-16T14:05:52;8.48;;;2.70;;
61150;SDS011;47029;50.994;2.876;2022-10-16T14:08:20;8.55;;;2.70;;
61150;SDS011;47029;50.994;2.876;2022-10-16T14:10:52;8.65;;;2.65;;
61150;SDS011;47029;50.994;2.876;2022-10-16T14:13:31;9.38;;;2.90;;
61150;SDS011;47029;50.994;2.876;2022-10-16T14:16:05;8.88;;;2.80;;
61150;SDS011;47029;50.994;2.876;2022-10-16T14:18:34;10.77;;;2.53;;
61150;SDS011;47029;50.994;2.876;2022-10-16T14:21:03;8.20;;;2.75;;
61150;SDS011;47029;50.994;2.876;2022-10-16T14:23:37;6.37;;;2.12;;
61150;SDS011;47029;50.994;2.876;2022-10-16T14:28:38;6.75;;;2.40;;
61150;SDS011;47029;50.994;2.876;2022-10-16T14:31:21;8.35;;;2.35;;
61150;SDS011;47029;50.994;2.876;2022-10-16T14:33:50;7.03;;;2.30;;
61150;SDS011;47029;50.994;2.876;2022-10-16T14:36:16;7.18;;;2.37;;
61150;SDS011;47029;50.994;2.876;2022-10-16T14:39:03;6.93;;;2.40;;
61150;SDS011;47029;50.994;2.876;2022-10-16T14:41:46;8.02;;;2.75;;
61150;SDS011;47029;50.994;2.876;2022-10-16T14:44:14;8.45;;;2.62;;
61150;SDS011;47029;50.994;2.876;2022-10-16T14:46:43;8.00;;;2.28;;
61150;SDS011;47029;50.994;2.876;2022-10-16T14:51:39;7.85;;;2.60;;
61150;SDS011;47029;50.994;2.876;2022-10-16T14:54:11;6.07;;;2.27;;
61150;SDS011;47029;50.994;2.876;2022-10-16T14:56:54;8.88;;;2.40;;
61150;SDS011;47029;50.994;2.876;2022-10-16T14:59:29;9.23;;;2.60;;
61150;SDS011;47029;50.994;2.876;2022-10-16T15:01:59;7.25;;;2.25;;
61150;SDS011;47029;50.994;2.876;2022-10-16T15:04:26;8.13;;;2.67;;
61150;SDS011;47029;50.994;2.876;2022-10-16T15:06:52;7.95;;;2.60;;
61150;SDS011;47029;50.994;2.876;2022-10-16T15:09:18;6.95;;;2.42;;
61150;SDS011;47029;50.994;2.876;2022-10-16T15:11:44;9.55;;;2.70;;
61150;SDS011;47029;50.994;2.876;2022-10-16T15:14:11;5.22;;;2.05;;
61150;SDS011;47029;50.994;2.876;2022-10-16T15:16:38;9.80;;;2.50;;
61150;SDS011;47029;50.994;2.876;2022-10-16T15:19:04;9.35;;;2.60;;
61150;SDS011;47029;50.994;2.876;2022-10-16T15:21:31;7.32;;;2.60;;
61150;SDS011;47029;50.994;2.876;2022-10-16T15:23:58;6.95;;;2.20;;
61150;SDS011;47029;50.994;2.876;2022-10-16T15:26:28;6.97;;;2.40;;
61150;SDS011;47029;50.994;2.876;2022-10-16T15:28:55;7.60;;;2.47;;
61150;SDS011;47029;50.994;2.876;2022-10-16T15:31:21;8.15;;;2.97;;
61150;SDS011;47029;50.994;2.876;2022-10-16T15:33:52;7.30;;;2.70;;
61150;SDS011;47029;50.994;2.876;2022-10-16T15:36:33;11.52;;;3.00;;
61150;SDS011;47029;50.994;2.876;2022-10-16T15:39:14;8.25;;;2.90;;
61150;SDS011;47029;50.994;2.876;2022-10-16T15:41:45;10.70;;;3.40;;
61150;SDS011;47029;50.994;2.876;2022-10-16T15:44:16;11.70;;;3.20;;
61150;SDS011;47029;50.994;2.876;2022-10-16T15:46:42;9.27;;;3.30;;
61150;SDS011;47029;50.994;2.876;2022-10-16T15:49:09;9.75;;;3.25;;
61150;SDS011;47029;50.994;2.876;2022-10-16T15:51:40;10.77;;;3.20;;
61150;SDS011;47029;50.994;2.876;2022-10-16T15:54:07;12.65;;;3.40;;
61150;SDS011;47029;50.994;2.876;2022-10-16T15:56:33;9.48;;;3.20;;
61150;SDS011;47029;50.994;2.876;2022-10-16T15:59:01;8.98;;;3.40;;
61150;SDS011;47029;50.994;2.876;2022-10-16T16:01:31;10.18;;;3.50;;
61150;SDS011;47029;50.994;2.876;2022-10-16T16:04:00;9.38;;;3.30;;
61150;SDS011;47029;50.994;2.876;2022-10-16T16:06:26;9.93;;;3.30;;
61150;SDS011;47029;50.994;2.876;2022-10-16T16:08:52;8.38;;;3.10;;
61150;SDS011;47029;50.994;2.876;2022-10-16T16:11:19;8.35;;;3.30;;
61150;SDS011;47029;50.994;2.876;2022-10-16T16:13:45;11.70;;;3.58;;
61150;SDS011;47029;50.994;2.876;2022-10-16T16:16:12;12.18;;;3.50;;
61150;SDS011;47029;50.994;2.876;2022-10-16T16:18:39;9.60;;;3.75;;
61150;SDS011;47029;50.994;2.876;2022-10-16T16:21:06;10.35;;;3.53;;
61150;SDS011;47029;50.994;2.876;2022-10-16T16:23:32;8.85;;;3.50;;
61150;SDS011;47029;50.994;2.876;2022-10-16T16:26:07;13.85;;;3.95;;
61150;SDS011;47029;50.994;2.876;2022-10-16T16:28:36;13.25;;;4.00;;
61150;SDS011;47029;50.994;2.876;2022-10-16T16:31:04;10.68;;;3.58;;
61150;SDS011;47029;50.994;2.876;2022-10-16T16:33:30;9.27;;;3.60;;
61150;SDS011;47029;50.994;2.876;2022-10-16T16:36:00;12.05;;;3.70;;
61150;SDS011;47029;50.994;2.876;2022-10-16T16:38:28;9.73;;;3.55;;
61150;SDS011;47029;50.994;2.876;2022-10-16T16:40:55;10.57;;;3.90;;
61150;SDS011;47029;50.994;2.876;2022-10-16T16:43:25;11.98;;;3.97;;
61150;SDS011;47029;50.994;2.876;2022-10-16T16:45:52;10.70;;;4.12;;
61150;SDS011;47029;50.994;2.876;2022-10-16T16:48:20;9.32;;;3.80;;
61150;SDS011;47029;50.994;2.876;2022-10-16T16:50:46;12.13;;;4.30;;
61150;SDS011;47029;50.994;2.876;2022-10-16T16:53:12;11.85;;;4.30;;
61150;SDS011;47029;50.994;2.876;2022-10-16T16:55:38;9.77;;;4.60;;
61150;SDS011;47029;50.994;2.876;2022-10-16T16:58:04;11.23;;;4.50;;
61150;SDS011;47029;50.994;2.876;2022-10-16T17:00:30;12.93;;;4.62;;